sensor_id;sensor_type;location;lat;lon;timestamp;P1;durP1;ratioP1;P2;durP2;ratioP2
4873;SDS011;2451;49.970;9.068;2023-04-25T00:02:01;10.20;;;7.45;;
4873;SDS011;2451;49.970;9.068;2023-04-25T00:04:28;9.35;;;6.75;;
4873;SDS011;2451;49.970;9.068;2023-04-25T00:06:54;10.95;;;7.25;;
4873;SDS011;2451;49.970;9.068;2023-04-25T00:09:20;10.25;;;6.68;;
4873;SDS011;2451;49.970;9.068;2023-04-25T00:11:46;10.73;;;7.00;;
4873;SDS011;2451;49.970;9.068;2023-04-25T00:14:12;9.70;;;6.40;;
4873;SDS011;2451;49.970;9.068;2023-04-25T00:16:37;10.50;;;6.95;;
4873;SDS011;2451;49.970;9.068;2023-04-25T00:19:03;9.55;;;6.88;;
4873;SDS011;2451;49.970;9.068;2023-04-25T00:21:29;10.15;;;6.65;;
4873;SDS011;2451;49.970;9.068;2023-04-25T00:23:56;10.15;;;7.72;;
4873;SDS011;2451;49.970;9.068;2023-04-25T00:26:22;11.30;;;7.00;;
4873;SDS011;2451;49.970;9.068;2023-04-25T00:28:48;10.93;;;6.65;;
4873;SDS011;2451;49.970;9.068;2023-04-25T00:31:13;8.82;;;6.55;;
4873;SDS011;2451;49.970;9.068;2023-04-25T00:33:39;9.40;;;6.32;;
4873;SDS011;2451;49.970;9.068;2023-04-25T00:36:05;8.95;;;6.05;;
4873;SDS011;2451;49.970;9.068;2023-04-25T00:38:31;8.35;;;5.82;;
4873;SDS011;2451;49.970;9.068;2023-04-25T00:40:57;8.23;;;5.50;;
4873;SDS011;2451;49.970;9.068;2023-04-25T00:43:23;8.25;;;5.72;;
4873;SDS011;2451;49.970;9.068;2023-04-25T00:45:51;9.02;;;5.97;;
4873;SDS011;2451;49.970;9.068;2023-04-25T00:48:18;8.05;;;5.57;;
4873;SDS011;2451;49.970;9.068;2023-04-25T00:50:58;7.17;;;5.17;;
4873;SDS011;2451;49.970;9.068;2023-04-25T00:53:25;8.63;;;6.35;;
4873;SDS011;2451;49.970;9.068;2023-04-25T00:55:52;8.25;;;5.78;;
4873;SDS011;2451;49.970;9.068;2023-04-25T00:58:19;9.95;;;5.40;;
4873;SDS011;2451;49.970;9.068;2023-04-25T01:00:45;8.15;;;5.47;;
4873;SDS011;2451;49.970;9.068;2023-04-25T01:03:13;9.00;;;5.60;;
4873;SDS011;2451;49.970;9.068;2023-04-25T01:05:41;9.55;;;5.80;;
4873;SDS011;2451;49.970;9.068;2023-04-25T01:08:07;8.18;;;5.78;;
4873;SDS011;2451;49.970;9.068;2023-04-25T01:10:33;8.10;;;5.85;;
4873;SDS011;2451;49.970;9.068;2023-04-25T01:12:58;8.40;;;5.65;;
4873;SDS011;2451;49.970;9.068;2023-04-25T01:15:24;8.85;;;5.82;;
4873;SDS011;2451;49.970;9.068;2023-04-25T01:17:50;7.10;;;5.25;;
4873;SDS011;2451;49.970;9.068;2023-04-25T01:20:16;7.82;;;5.65;;
4873;SDS011;2451;49.970;9.068;2023-04-25T01:22:42;8.50;;;5.50;;
4873;SDS011;2451;49.970;9.068;2023-04-25T01:25:08;9.27;;;5.68;;
4873;SDS011;2451;49.970;9.068;2023-04-25T01:27:35;9.52;;;5.97;;
4873;SDS011;2451;49.970;9.068;2023-04-25T01:30:01;8.57;;;6.15;;
4873;SDS011;2451;49.970;9.068;2023-04-25T01:32:28;11.82;;;5.85;;
4873;SDS011;2451;49.970;9.068;2023-04-25T01:34:54;9.07;;;6.38;;
4873;SDS011;2451;49.970;9.068;2023-04-25T01:37:19;9.40;;;5.72;;
4873;SDS011;2451;49.970;9.068;2023-04-25T01:39:45;10.25;;;6.53;;
4873;SDS011;2451;49.970;9.068;2023-04-25T01:42:11;8.77;;;5.88;;
4873;SDS011;2451;49.970;9.068;2023-04-25T01:44:37;8.63;;;5.72;;
4873;SDS011;2451;49.970;9.068;2023-04-25T01:47:03;9.45;;;6.22;;
4873;SDS011;2451;49.970;9.068;2023-04-25T01:49:28;8.90;;;5.88;;
4873;SDS011;2451;49.970;9.068;2023-04-25T01:51:54;9.35;;;6.30;;
4873;SDS011;2451;49.970;9.068;2023-04-25T01:54:20;8.77;;;6.20;;
4873;SDS011;2451;49.970;9.068;2023-04-25T01:56:49;9.63;;;6.35;;
4873;SDS011;2451;49.970;9.068;2023-04-25T01:59:16;9.70;;;6.80;;
4873;SDS011;2451;49.970;9.068;2023-04-25T02:01:43;10.77;;;6.32;;
4873;SDS011;2451;49.970;9.068;2023-04-25T02:04:08;9.43;;;6.65;;
4873;SDS011;2451;49.970;9.068;2023-04-25T02:06:34;9.43;;;6.35;;
4873;SDS011;2451;49.970;9.068;2023-04-25T02:08:59;9.43;;;6.35;;
4873;SDS011;2451;49.970;9.068;2023-04-25T02:11:25;11.00;;;7.40;;
4873;SDS011;2451;49.970;9.068;2023-04-25T02:13:50;9.82;;;7.05;;
4873;SDS011;2451;49.970;9.068;2023-04-25T02:16:16;9.45;;;6.40;;
4873;SDS011;2451;49.970;9.068;2023-04-25T02:18:41;10.15;;;6.50;;
4873;SDS011;2451;49.970;9.068;2023-04-25T02:21:07;9.98;;;6.95;;
4873;SDS011;2451;49.970;9.068;2023-04-25T02:23:33;10.35;;;6.78;;
4873;SDS011;2451;49.970;9.068;2023-04-25T02:25:58;13.38;;;7.80;;
4873;SDS011;2451;49.970;9.068;2023-04-25T02:28:24;9.85;;;6.70;;
4873;SDS011;2451;49.970;9.068;2023-04-25T02:30:51;9.65;;;6.90;;
4873;SDS011;2451;49.970;9.068;2023-04-25T02:33:16;10.85;;;7.45;;
4873;SDS011;2451;49.970;9.068;2023-04-25T02:35:42;10.02;;;6.97;;
4873;SDS011;2451;49.970;9.068;2023-04-25T02:38:08;10.57;;;7.10;;
4873;SDS011;2451;49.970;9.068;2023-04-25T02:40:33;10.80;;;7.43;;
4873;SDS011;2451;49.970;9.068;2023-04-25T02:42:59;12.25;;;7.10;;
4873;SDS011;2451;49.970;9.068;2023-04-25T02:45:24;10.35;;;7.55;;
4873;SDS011;2451;49.970;9.068;2023-04-25T02:47:50;10.80;;;7.45;;
4873;SDS011;2451;49.970;9.068;2023-04-25T02:50:15;12.23;;;7.63;;
4873;SDS011;2451;49.970;9.068;2023-04-25T02:52:41;11.18;;;7.35;;
4873;SDS011;2451;49.970;9.068;2023-04-25T02:55:06;13.43;;;6.93;;
4873;SDS011;2451;49.970;9.068;2023-04-25T02:57:32;11.75;;;7.20;;
4873;SDS011;2451;49.970;9.068;2023-04-25T02:59:57;13.38;;;7.30;;
4873;SDS011;2451;49.970;9.068;2023-04-25T03:02:23;12.07;;;7.53;;
4873;SDS011;2451;49.970;9.068;2023-04-25T03:04:48;15.82;;;10.20;;
4873;SDS011;2451;49.970;9.068;2023-04-25T03:07:14;10.50;;;7.78;;
4873;SDS011;2451;49.970;9.068;2023-04-25T03:09:39;11.07;;;7.53;;
4873;SDS011;2451;49.970;9.068;2023-04-25T03:12:05;12.68;;;8.05;;
4873;SDS011;2451;49.970;9.068;2023-04-25T03:14:31;11.40;;;7.82;;
4873;SDS011;2451;49.970;9.068;2023-04-25T03:16:57;10.38;;;7.68;;
4873;SDS011;2451;49.970;9.068;2023-04-25T03:19:23;11.18;;;7.70;;
4873;SDS011;2451;49.970;9.068;2023-04-25T03:21:48;12.98;;;7.75;;
4873;SDS011;2451;49.970;9.068;2023-04-25T03:24:14;13.13;;;9.30;;
4873;SDS011;2451;49.970;9.068;2023-04-25T03:26:40;12.02;;;8.25;;
4873;SDS011;2451;49.970;9.068;2023-04-25T03:29:05;11.80;;;7.70;;
4873;SDS011;2451;49.970;9.068;2023-04-25T03:31:31;13.00;;;8.57;;
4873;SDS011;2451;49.970;9.068;2023-04-25T03:33:56;12.50;;;8.20;;
4873;SDS011;2451;49.970;9.068;2023-04-25T03:36:22;13.85;;;10.02;;
4873;SDS011;2451;49.970;9.068;2023-04-25T03:38:47;12.48;;;8.95;;
4873;SDS011;2451;49.970;9.068;2023-04-25T03:41:13;13.50;;;9.18;;
4873;SDS011;2451;49.970;9.068;2023-04-25T03:43:39;16.60;;;9.82;;
4873;SDS011;2451;49.970;9.068;2023-04-25T03:46:04;15.07;;;9.60;;
4873;SDS011;2451;49.970;9.068;2023-04-25T03:48:30;16.08;;;10.25;;
4873;SDS011;2451;49.970;9.068;2023-04-25T03:50:55;13.68;;;9.45;;
4873;SDS011;2451;49.970;9.068;2023-04-25T03:53:21;12.45;;;8.57;;
4873;SDS011;2451;49.970;9.068;2023-04-25T03:55:46;13.52;;;9.15;;
4873;SDS011;2451;49.970;9.068;2023-04-25T03:58:12;10.95;;;8.13;;
4873;SDS011;2451;49.970;9.068;2023-04-25T04:00:38;12.05;;;8.95;;
4873;SDS011;2451;49.970;9.068;2023-04-25T04:03:03;12.65;;;8.82;;
4873;SDS011;2451;49.970;9.068;2023-04-25T04:05:29;11.63;;;8.95;;
4873;SDS011;2451;49.970;9.068;2023-04-25T04:07:54;13.90;;;9.00;;
4873;SDS011;2451;49.970;9.068;2023-04-25T04:10:20;11.20;;;8.50;;
4873;SDS011;2451;49.970;9.068;2023-04-25T04:12:46;12.65;;;9.05;;
4873;SDS011;2451;49.970;9.068;2023-04-25T04:15:12;12.20;;;8.48;;
4873;SDS011;2451;49.970;9.068;2023-04-25T04:17:37;13.27;;;8.88;;
4873;SDS011;2451;49.970;9.068;2023-04-25T04:20:03;11.93;;;8.88;;
4873;SDS011;2451;49.970;9.068;2023-04-25T04:22:31;12.45;;;8.85;;
4873;SDS011;2451;49.970;9.068;2023-04-25T04:24:56;12.27;;;9.07;;
4873;SDS011;2451;49.970;9.068;2023-04-25T04:27:22;12.80;;;8.98;;
4873;SDS011;2451;49.970;9.068;2023-04-25T04:29:48;13.18;;;8.85;;
4873;SDS011;2451;49.970;9.068;2023-04-25T04:32:14;12.90;;;9.45;;
4873;SDS011;2451;49.970;9.068;2023-04-25T04:34:40;14.45;;;9.65;;
4873;SDS011;2451;49.970;9.068;2023-04-25T04:37:06;13.15;;;9.43;;
4873;SDS011;2451;49.970;9.068;2023-04-25T04:39:35;12.43;;;9.43;;
4873;SDS011;2451;49.970;9.068;2023-04-25T04:42:01;12.90;;;9.45;;
4873;SDS011;2451;49.970;9.068;2023-04-25T04:44:26;13.52;;;9.65;;
4873;SDS011;2451;49.970;9.068;2023-04-25T04:46:53;12.65;;;9.50;;
4873;SDS011;2451;49.970;9.068;2023-04-25T04:49:19;13.35;;;9.27;;
4873;SDS011;2451;49.970;9.068;2023-04-25T04:51:45;13.32;;;9.30;;
4873;SDS011;2451;49.970;9.068;2023-04-25T04:54:12;13.05;;;9.40;;
4873;SDS011;2451;49.970;9.068;2023-04-25T04:56:38;12.75;;;9.55;;
4873;SDS011;2451;49.970;9.068;2023-04-25T04:59:03;15.15;;;9.63;;
4873;SDS011;2451;49.970;9.068;2023-04-25T05:01:29;17.55;;;10.25;;
4873;SDS011;2451;49.970;9.068;2023-04-25T05:03:55;14.88;;;10.48;;
4873;SDS011;2451;49.970;9.068;2023-04-25T05:06:25;15.73;;;10.55;;
4873;SDS011;2451;49.970;9.068;2023-04-25T05:08:51;12.93;;;9.45;;
4873;SDS011;2451;49.970;9.068;2023-04-25T05:11:17;16.42;;;10.48;;
4873;SDS011;2451;49.970;9.068;2023-04-25T05:13:43;15.55;;;9.88;;
4873;SDS011;2451;49.970;9.068;2023-04-25T05:16:09;13.40;;;9.20;;
4873;SDS011;2451;49.970;9.068;2023-04-25T05:18:34;14.38;;;9.48;;
4873;SDS011;2451;49.970;9.068;2023-04-25T05:21:01;14.32;;;9.07;;
4873;SDS011;2451;49.970;9.068;2023-04-25T05:23:26;17.05;;;8.68;;
4873;SDS011;2451;49.970;9.068;2023-04-25T05:25:52;13.18;;;8.27;;
4873;SDS011;2451;49.970;9.068;2023-04-25T05:28:18;15.82;;;9.48;;
4873;SDS011;2451;49.970;9.068;2023-04-25T05:30:44;15.27;;;8.52;;
4873;SDS011;2451;49.970;9.068;2023-04-25T05:33:09;15.90;;;8.35;;
4873;SDS011;2451;49.970;9.068;2023-04-25T05:35:35;17.33;;;8.15;;
4873;SDS011;2451;49.970;9.068;2023-04-25T05:38:00;16.63;;;8.27;;
4873;SDS011;2451;49.970;9.068;2023-04-25T05:40:26;15.63;;;8.13;;
4873;SDS011;2451;49.970;9.068;2023-04-25T05:42:52;18.17;;;8.75;;
4873;SDS011;2451;49.970;9.068;2023-04-25T05:45:17;17.20;;;9.32;;
4873;SDS011;2451;49.970;9.068;2023-04-25T05:47:43;19.77;;;8.90;;
4873;SDS011;2451;49.970;9.068;2023-04-25T05:50:08;16.52;;;8.98;;
4873;SDS011;2451;49.970;9.068;2023-04-25T05:52:34;20.17;;;9.02;;
4873;SDS011;2451;49.970;9.068;2023-04-25T05:55:00;20.60;;;9.18;;
4873;SDS011;2451;49.970;9.068;2023-04-25T05:57:26;19.88;;;8.90;;
4873;SDS011;2451;49.970;9.068;2023-04-25T05:59:52;16.02;;;8.32;;
4873;SDS011;2451;49.970;9.068;2023-04-25T06:02:18;14.20;;;7.70;;
4873;SDS011;2451;49.970;9.068;2023-04-25T06:04:45;14.63;;;7.57;;
4873;SDS011;2451;49.970;9.068;2023-04-25T06:07:11;14.43;;;7.13;;
4873;SDS011;2451;49.970;9.068;2023-04-25T06:09:36;13.82;;;7.05;;
4873;SDS011;2451;49.970;9.068;2023-04-25T06:12:04;15.13;;;7.50;;
4873;SDS011;2451;49.970;9.068;2023-04-25T06:14:30;12.02;;;7.25;;
4873;SDS011;2451;49.970;9.068;2023-04-25T06:16:55;14.27;;;7.28;;
4873;SDS011;2451;49.970;9.068;2023-04-25T06:19:21;14.93;;;7.32;;
4873;SDS011;2451;49.970;9.068;2023-04-25T06:21:46;13.32;;;7.80;;
4873;SDS011;2451;49.970;9.068;2023-04-25T06:24:12;18.25;;;8.25;;
4873;SDS011;2451;49.970;9.068;2023-04-25T06:26:38;15.85;;;7.82;;
4873;SDS011;2451;49.970;9.068;2023-04-25T06:29:03;12.18;;;7.18;;
4873;SDS011;2451;49.970;9.068;2023-04-25T06:31:29;12.65;;;7.05;;
4873;SDS011;2451;49.970;9.068;2023-04-25T06:33:57;14.90;;;6.93;;
4873;SDS011;2451;49.970;9.068;2023-04-25T06:36:22;12.52;;;7.30;;
4873;SDS011;2451;49.970;9.068;2023-04-25T06:38:52;13.68;;;6.78;;
4873;SDS011;2451;49.970;9.068;2023-04-25T06:41:19;13.63;;;7.32;;
4873;SDS011;2451;49.970;9.068;2023-04-25T06:43:44;17.65;;;7.60;;
4873;SDS011;2451;49.970;9.068;2023-04-25T06:46:10;14.20;;;7.40;;
4873;SDS011;2451;49.970;9.068;2023-04-25T06:48:35;15.63;;;7.15;;
4873;SDS011;2451;49.970;9.068;2023-04-25T06:51:01;11.30;;;7.20;;
4873;SDS011;2451;49.970;9.068;2023-04-25T06:53:27;18.05;;;7.20;;
4873;SDS011;2451;49.970;9.068;2023-04-25T06:55:52;11.63;;;6.43;;
4873;SDS011;2451;49.970;9.068;2023-04-25T06:58:18;12.90;;;6.50;;
4873;SDS011;2451;49.970;9.068;2023-04-25T07:00:44;18.67;;;6.85;;
4873;SDS011;2451;49.970;9.068;2023-04-25T07:03:09;14.15;;;6.90;;
4873;SDS011;2451;49.970;9.068;2023-04-25T07:05:35;11.63;;;6.15;;
4873;SDS011;2451;49.970;9.068;2023-04-25T07:08:00;12.48;;;6.30;;
4873;SDS011;2451;49.970;9.068;2023-04-25T07:10:26;10.63;;;5.60;;
4873;SDS011;2451;49.970;9.068;2023-04-25T07:12:52;10.93;;;5.45;;
4873;SDS011;2451;49.970;9.068;2023-04-25T07:15:17;10.82;;;4.78;;
4873;SDS011;2451;49.970;9.068;2023-04-25T07:17:43;8.68;;;4.60;;
4873;SDS011;2451;49.970;9.068;2023-04-25T07:20:08;8.32;;;4.03;;
4873;SDS011;2451;49.970;9.068;2023-04-25T07:22:34;9.88;;;4.55;;
4873;SDS011;2451;49.970;9.068;2023-04-25T07:25:00;10.73;;;4.50;;
4873;SDS011;2451;49.970;9.068;2023-04-25T07:27:26;6.82;;;3.72;;
4873;SDS011;2451;49.970;9.068;2023-04-25T07:29:51;8.65;;;4.32;;
4873;SDS011;2451;49.970;9.068;2023-04-25T07:32:17;7.75;;;3.75;;
4873;SDS011;2451;49.970;9.068;2023-04-25T07:34:42;8.07;;;3.40;;
4873;SDS011;2451;49.970;9.068;2023-04-25T07:37:08;7.00;;;3.72;;
4873;SDS011;2451;49.970;9.068;2023-04-25T07:39:34;7.53;;;3.72;;
4873;SDS011;2451;49.970;9.068;2023-04-25T07:42:00;10.80;;;4.15;;
4873;SDS011;2451;49.970;9.068;2023-04-25T07:44:27;8.70;;;4.03;;
4873;SDS011;2451;49.970;9.068;2023-04-25T07:46:52;13.63;;;5.10;;
4873;SDS011;2451;49.970;9.068;2023-04-25T07:49:18;10.77;;;4.80;;
4873;SDS011;2451;49.970;9.068;2023-04-25T07:51:43;8.82;;;4.28;;
4873;SDS011;2451;49.970;9.068;2023-04-25T07:54:10;8.43;;;4.63;;
4873;SDS011;2451;49.970;9.068;2023-04-25T07:56:40;11.90;;;5.68;;
4873;SDS011;2451;49.970;9.068;2023-04-25T07:59:06;10.98;;;5.00;;
4873;SDS011;2451;49.970;9.068;2023-04-25T08:01:31;11.57;;;5.53;;
4873;SDS011;2451;49.970;9.068;2023-04-25T08:03:57;7.88;;;4.43;;
4873;SDS011;2451;49.970;9.068;2023-04-25T08:06:22;13.18;;;5.63;;
4873;SDS011;2451;49.970;9.068;2023-04-25T08:08:48;14.27;;;6.00;;
4873;SDS011;2451;49.970;9.068;2023-04-25T08:11:13;10.98;;;4.50;;
4873;SDS011;2451;49.970;9.068;2023-04-25T08:13:39;8.73;;;4.32;;
4873;SDS011;2451;49.970;9.068;2023-04-25T08:16:04;10.02;;;4.50;;
4873;SDS011;2451;49.970;9.068;2023-04-25T08:18:30;11.13;;;4.97;;
4873;SDS011;2451;49.970;9.068;2023-04-25T08:20:55;7.95;;;4.47;;
4873;SDS011;2451;49.970;9.068;2023-04-25T08:23:21;9.70;;;4.50;;
4873;SDS011;2451;49.970;9.068;2023-04-25T08:25:47;8.20;;;4.03;;
4873;SDS011;2451;49.970;9.068;2023-04-25T08:28:12;8.20;;;3.90;;
4873;SDS011;2451;49.970;9.068;2023-04-25T08:30:38;8.73;;;4.50;;
4873;SDS011;2451;49.970;9.068;2023-04-25T08:33:04;8.63;;;3.97;;
4873;SDS011;2451;49.970;9.068;2023-04-25T08:35:30;9.65;;;4.07;;
4873;SDS011;2451;49.970;9.068;2023-04-25T08:37:55;12.27;;;5.15;;
4873;SDS011;2451;49.970;9.068;2023-04-25T08:40:22;8.25;;;4.40;;
4873;SDS011;2451;49.970;9.068;2023-04-25T08:42:53;9.05;;;4.22;;
4873;SDS011;2451;49.970;9.068;2023-04-25T08:45:20;9.82;;;4.57;;
4873;SDS011;2451;49.970;9.068;2023-04-25T08:47:45;7.85;;;4.15;;
4873;SDS011;2451;49.970;9.068;2023-04-25T08:50:13;8.68;;;4.32;;
4873;SDS011;2451;49.970;9.068;2023-04-25T08:52:45;7.68;;;4.38;;
4873;SDS011;2451;49.970;9.068;2023-04-25T08:55:13;7.53;;;4.32;;
4873;SDS011;2451;49.970;9.068;2023-04-25T08:57:42;10.50;;;4.00;;
4873;SDS011;2451;49.970;9.068;2023-04-25T09:00:09;9.60;;;4.30;;
4873;SDS011;2451;49.970;9.068;2023-04-25T09:02:37;10.95;;;4.80;;
4873;SDS011;2451;49.970;9.068;2023-04-25T09:05:04;8.52;;;4.68;;
4873;SDS011;2451;49.970;9.068;2023-04-25T09:07:31;7.82;;;4.10;;
4873;SDS011;2451;49.970;9.068;2023-04-25T09:09:57;7.10;;;4.00;;
4873;SDS011;2451;49.970;9.068;2023-04-25T09:12:28;8.13;;;4.22;;
4873;SDS011;2451;49.970;9.068;2023-04-25T09:15:27;8.57;;;4.43;;
4873;SDS011;2451;49.970;9.068;2023-04-25T09:17:46;7.25;;;4.15;;
4873;SDS011;2451;49.970;9.068;2023-04-25T09:20:21;8.70;;;4.68;;
4873;SDS011;2451;49.970;9.068;2023-04-25T09:22:46;10.40;;;4.45;;
4873;SDS011;2451;49.970;9.068;2023-04-25T09:25:12;9.55;;;5.05;;
4873;SDS011;2451;49.970;9.068;2023-04-25T09:27:52;9.40;;;4.60;;
4873;SDS011;2451;49.970;9.068;2023-04-25T09:30:27;11.13;;;4.95;;
4873;SDS011;2451;49.970;9.068;2023-04-25T09:33:08;7.60;;;3.95;;
4873;SDS011;2451;49.970;9.068;2023-04-25T09:35:41;9.73;;;4.70;;
4873;SDS011;2451;49.970;9.068;2023-04-25T09:38:09;8.88;;;4.45;;
4873;SDS011;2451;49.970;9.068;2023-04-25T09:40:40;8.75;;;4.20;;
4873;SDS011;2451;49.970;9.068;2023-04-25T09:43:09;6.40;;;3.95;;
4873;SDS011;2451;49.970;9.068;2023-04-25T09:45:41;7.93;;;4.78;;
4873;SDS011;2451;49.970;9.068;2023-04-25T09:48:10;8.05;;;4.63;;
4873;SDS011;2451;49.970;9.068;2023-04-25T09:50:37;7.80;;;4.18;;
4873;SDS011;2451;49.970;9.068;2023-04-25T09:53:04;8.52;;;4.20;;
4873;SDS011;2451;49.970;9.068;2023-04-25T09:55:31;10.43;;;4.80;;
4873;SDS011;2451;49.970;9.068;2023-04-25T09:57:57;6.85;;;4.50;;
4873;SDS011;2451;49.970;9.068;2023-04-25T10:00:33;8.60;;;5.03;;
4873;SDS011;2451;49.970;9.068;2023-04-25T10:03:00;9.10;;;4.80;;
4873;SDS011;2451;49.970;9.068;2023-04-25T10:05:30;10.70;;;5.03;;
4873;SDS011;2451;49.970;9.068;2023-04-25T10:07:58;12.43;;;5.95;;
4873;SDS011;2451;49.970;9.068;2023-04-25T10:10:27;10.55;;;5.40;;
4873;SDS011;2451;49.970;9.068;2023-04-25T10:12:55;10.32;;;4.90;;
4873;SDS011;2451;49.970;9.068;2023-04-25T10:15:21;9.23;;;4.65;;
4873;SDS011;2451;49.970;9.068;2023-04-25T10:17:47;9.20;;;5.13;;
4873;SDS011;2451;49.970;9.068;2023-04-25T10:20:14;10.23;;;5.15;;
4873;SDS011;2451;49.970;9.068;2023-04-25T10:22:46;9.32;;;4.90;;
4873;SDS011;2451;49.970;9.068;2023-04-25T10:25:13;9.93;;;5.30;;
4873;SDS011;2451;49.970;9.068;2023-04-25T10:27:39;11.57;;;5.10;;
4873;SDS011;2451;49.970;9.068;2023-04-25T10:30:09;8.05;;;4.57;;
4873;SDS011;2451;49.970;9.068;2023-04-25T10:32:39;8.25;;;4.75;;
4873;SDS011;2451;49.970;9.068;2023-04-25T10:35:15;11.45;;;5.20;;
4873;SDS011;2451;49.970;9.068;2023-04-25T10:40:35;11.32;;;4.78;;
4873;SDS011;2451;49.970;9.068;2023-04-25T10:44:01;8.70;;;4.80;;
4873;SDS011;2451;49.970;9.068;2023-04-25T10:45:55;9.73;;;4.80;;
4873;SDS011;2451;49.970;9.068;2023-04-25T10:48:25;10.25;;;4.90;;
4873;SDS011;2451;49.970;9.068;2023-04-25T10:51:06;10.65;;;4.97;;
4873;SDS011;2451;49.970;9.068;2023-04-25T10:53:35;8.18;;;5.00;;
4873;SDS011;2451;49.970;9.068;2023-04-25T10:56:11;8.27;;;4.50;;
4873;SDS011;2451;49.970;9.068;2023-04-25T10:58:46;9.13;;;4.60;;
4873;SDS011;2451;49.970;9.068;2023-04-25T11:01:12;9.02;;;4.60;;
4873;SDS011;2451;49.970;9.068;2023-04-25T11:03:43;12.80;;;5.63;;
4873;SDS011;2451;49.970;9.068;2023-04-25T11:06:29;10.57;;;4.97;;
4873;SDS011;2451;49.970;9.068;2023-04-25T11:09:14;7.30;;;4.15;;
4873;SDS011;2451;49.970;9.068;2023-04-25T11:11:40;9.13;;;4.60;;
4873;SDS011;2451;49.970;9.068;2023-04-25T11:14:06;7.63;;;4.90;;
4873;SDS011;2451;49.970;9.068;2023-04-25T11:16:32;8.82;;;4.20;;
4873;SDS011;2451;49.970;9.068;2023-04-25T11:18:57;7.05;;;4.45;;
4873;SDS011;2451;49.970;9.068;2023-04-25T11:21:25;9.15;;;4.63;;
4873;SDS011;2451;49.970;9.068;2023-04-25T11:23:52;11.20;;;4.90;;
4873;SDS011;2451;49.970;9.068;2023-04-25T11:26:19;10.07;;;4.90;;
4873;SDS011;2451;49.970;9.068;2023-04-25T11:28:45;9.20;;;4.85;;
4873;SDS011;2451;49.970;9.068;2023-04-25T11:31:11;9.63;;;5.53;;
4873;SDS011;2451;49.970;9.068;2023-04-25T11:33:37;9.32;;;5.60;;
4873;SDS011;2451;49.970;9.068;2023-04-25T11:36:03;11.82;;;5.95;;
4873;SDS011;2451;49.970;9.068;2023-04-25T11:38:29;10.10;;;5.88;;
4873;SDS011;2451;49.970;9.068;2023-04-25T11:40:54;10.35;;;6.20;;
4873;SDS011;2451;49.970;9.068;2023-04-25T11:43:20;12.73;;;6.07;;
4873;SDS011;2451;49.970;9.068;2023-04-25T11:45:47;9.73;;;5.00;;
4873;SDS011;2451;49.970;9.068;2023-04-25T11:48:15;9.18;;;5.20;;
4873;SDS011;2451;49.970;9.068;2023-04-25T11:50:41;10.10;;;5.57;;
4873;SDS011;2451;49.970;9.068;2023-04-25T11:53:06;9.27;;;5.95;;
4873;SDS011;2451;49.970;9.068;2023-04-25T11:55:33;8.10;;;5.10;;
4873;SDS011;2451;49.970;9.068;2023-04-25T11:58:00;9.40;;;5.22;;
4873;SDS011;2451;49.970;9.068;2023-04-25T12:00:26;13.02;;;4.93;;
4873;SDS011;2451;49.970;9.068;2023-04-25T12:02:52;12.18;;;5.60;;
4873;SDS011;2451;49.970;9.068;2023-04-25T12:05:20;9.45;;;5.22;;
4873;SDS011;2451;49.970;9.068;2023-04-25T12:07:48;8.75;;;4.95;;
4873;SDS011;2451;49.970;9.068;2023-04-25T12:10:17;7.55;;;4.63;;
4873;SDS011;2451;49.970;9.068;2023-04-25T12:12:44;6.75;;;4.78;;
4873;SDS011;2451;49.970;9.068;2023-04-25T12:15:11;7.57;;;4.03;;
4873;SDS011;2451;49.970;9.068;2023-04-25T12:20:07;8.02;;;3.70;;
4873;SDS011;2451;49.970;9.068;2023-04-25T12:22:37;7.70;;;3.65;;
4873;SDS011;2451;49.970;9.068;2023-04-25T12:25:09;7.45;;;3.88;;
4873;SDS011;2451;49.970;9.068;2023-04-25T12:27:36;7.30;;;3.70;;
4873;SDS011;2451;49.970;9.068;2023-04-25T12:30:02;8.48;;;3.80;;
4873;SDS011;2451;49.970;9.068;2023-04-25T12:32:28;6.72;;;4.07;;
4873;SDS011;2451;49.970;9.068;2023-04-25T12:34:54;8.15;;;4.07;;
4873;SDS011;2451;49.970;9.068;2023-04-25T12:37:20;8.00;;;4.05;;
4873;SDS011;2451;49.970;9.068;2023-04-25T12:39:46;6.05;;;3.38;;
4873;SDS011;2451;49.970;9.068;2023-04-25T12:42:11;7.30;;;4.15;;
4873;SDS011;2451;49.970;9.068;2023-04-25T12:44:37;7.40;;;3.70;;
4873;SDS011;2451;49.970;9.068;2023-04-25T12:47:03;8.43;;;3.95;;
4873;SDS011;2451;49.970;9.068;2023-04-25T12:49:30;6.45;;;3.65;;
4873;SDS011;2451;49.970;9.068;2023-04-25T12:51:55;9.00;;;4.05;;
4873;SDS011;2451;49.970;9.068;2023-04-25T12:54:21;7.45;;;3.53;;
4873;SDS011;2451;49.970;9.068;2023-04-25T12:56:46;7.32;;;3.67;;
4873;SDS011;2451;49.970;9.068;2023-04-25T12:59:12;6.15;;;3.88;;
4873;SDS011;2451;49.970;9.068;2023-04-25T13:01:38;7.05;;;3.95;;
4873;SDS011;2451;49.970;9.068;2023-04-25T13:04:03;7.50;;;3.60;;
4873;SDS011;2451;49.970;9.068;2023-04-25T13:06:29;9.50;;;3.80;;
4873;SDS011;2451;49.970;9.068;2023-04-25T13:08:55;6.75;;;3.40;;
4873;SDS011;2451;49.970;9.068;2023-04-25T13:11:21;7.22;;;3.60;;
4873;SDS011;2451;49.970;9.068;2023-04-25T13:13:46;6.90;;;3.60;;
4873;SDS011;2451;49.970;9.068;2023-04-25T13:16:12;7.38;;;3.38;;
4873;SDS011;2451;49.970;9.068;2023-04-25T13:18:41;8.73;;;3.50;;
4873;SDS011;2451;49.970;9.068;2023-04-25T13:21:07;7.13;;;3.42;;
4873;SDS011;2451;49.970;9.068;2023-04-25T13:23:35;5.68;;;3.45;;
4873;SDS011;2451;49.970;9.068;2023-04-25T13:26:01;7.57;;;4.25;;
4873;SDS011;2451;49.970;9.068;2023-04-25T13:28:27;9.13;;;3.65;;
4873;SDS011;2451;49.970;9.068;2023-04-25T13:30:53;9.00;;;3.78;;
4873;SDS011;2451;49.970;9.068;2023-04-25T13:33:19;9.25;;;3.92;;
4873;SDS011;2451;49.970;9.068;2023-04-25T13:35:45;8.05;;;3.70;;
4873;SDS011;2451;49.970;9.068;2023-04-25T13:38:18;7.70;;;3.80;;
4873;SDS011;2451;49.970;9.068;2023-04-25T13:40:44;8.90;;;3.45;;
4873;SDS011;2451;49.970;9.068;2023-04-25T13:43:10;13.70;;;5.78;;
4873;SDS011;2451;49.970;9.068;2023-04-25T13:45:36;16.35;;;6.55;;
4873;SDS011;2451;49.970;9.068;2023-04-25T13:48:01;12.35;;;4.20;;
4873;SDS011;2451;49.970;9.068;2023-04-25T13:50:27;8.32;;;3.90;;
4873;SDS011;2451;49.970;9.068;2023-04-25T13:52:53;9.40;;;3.47;;
4873;SDS011;2451;49.970;9.068;2023-04-25T13:55:18;6.65;;;3.80;;
4873;SDS011;2451;49.970;9.068;2023-04-25T13:57:44;11.15;;;4.72;;
4873;SDS011;2451;49.970;9.068;2023-04-25T14:00:10;10.38;;;3.95;;
4873;SDS011;2451;49.970;9.068;2023-04-25T14:02:36;9.52;;;4.47;;
4873;SDS011;2451;49.970;9.068;2023-04-25T14:05:03;12.13;;;5.07;;
4873;SDS011;2451;49.970;9.068;2023-04-25T14:07:29;9.65;;;4.80;;
4873;SDS011;2451;49.970;9.068;2023-04-25T14:09:55;11.48;;;5.50;;
4873;SDS011;2451;49.970;9.068;2023-04-25T14:12:24;9.88;;;3.92;;
4873;SDS011;2451;49.970;9.068;2023-04-25T14:14:50;7.68;;;3.63;;
4873;SDS011;2451;49.970;9.068;2023-04-25T14:17:16;7.47;;;3.80;;
4873;SDS011;2451;49.970;9.068;2023-04-25T14:19:41;8.38;;;4.20;;
4873;SDS011;2451;49.970;9.068;2023-04-25T14:22:12;8.82;;;4.43;;
4873;SDS011;2451;49.970;9.068;2023-04-25T14:24:38;9.40;;;3.70;;
4873;SDS011;2451;49.970;9.068;2023-04-25T14:27:04;8.18;;;3.60;;
4873;SDS011;2451;49.970;9.068;2023-04-25T14:29:29;8.82;;;4.18;;
4873;SDS011;2451;49.970;9.068;2023-04-25T14:31:55;5.40;;;3.45;;
4873;SDS011;2451;49.970;9.068;2023-04-25T14:34:22;9.60;;;4.47;;
4873;SDS011;2451;49.970;9.068;2023-04-25T14:36:48;7.35;;;3.95;;
4873;SDS011;2451;49.970;9.068;2023-04-25T14:39:13;7.28;;;3.95;;
4873;SDS011;2451;49.970;9.068;2023-04-25T14:41:39;11.82;;;5.18;;
4873;SDS011;2451;49.970;9.068;2023-04-25T14:44:05;8.35;;;4.40;;
4873;SDS011;2451;49.970;9.068;2023-04-25T14:46:30;7.95;;;4.40;;
4873;SDS011;2451;49.970;9.068;2023-04-25T14:48:56;11.30;;;4.25;;
4873;SDS011;2451;49.970;9.068;2023-04-25T14:51:22;10.93;;;4.45;;
4873;SDS011;2451;49.970;9.068;2023-04-25T14:53:47;8.65;;;4.30;;
4873;SDS011;2451;49.970;9.068;2023-04-25T14:56:13;10.02;;;4.53;;
4873;SDS011;2451;49.970;9.068;2023-04-25T14:58:39;9.85;;;3.92;;
4873;SDS011;2451;49.970;9.068;2023-04-25T15:01:05;10.05;;;4.45;;
4873;SDS011;2451;49.970;9.068;2023-04-25T15:03:31;10.23;;;4.47;;
4873;SDS011;2451;49.970;9.068;2023-04-25T15:05:57;7.40;;;3.85;;
4873;SDS011;2451;49.970;9.068;2023-04-25T15:08:23;8.40;;;4.15;;
4873;SDS011;2451;49.970;9.068;2023-04-25T15:10:48;7.18;;;3.60;;